Time;durP1;ratioP1;P1;durP2;ratioP2;P2;SDS_P1;SDS_P2;PMS_P1;PMS_P2;Temp;Humidity;BMP_temperature;BMP_pressure;BME280_temperature;BME280_humidity;BME280_pressure;Samples;Min_cycle;Max_cycle;Signal;HPM_P1;HPM_P2
2023/01/25 00:01:56;;;;;;;;;;;;;;;;;;5114291;28;19934;-72
2023/01/25 00:04:22;;;;;;;;;;;;;;;;;;5113880;28;20429;-71
2023/01/25 00:06:47;;;;;;;;;;;;;;;;;;5114311;28;19912;-71
2023/01/25 00:09:13;;;;;;;;;;;;;;;;;;5114312;28;19965;-71
2023/01/25 00:11:39;;;;;;;;;;;;;;;;;;5113936;28;19929;-72
2023/01/25 00:14:05;;;;;;;;;;;;;;;;;;5114218;28;19930;-72
2023/01/25 00:16:31;;;;;;;;;;;;;;;;;;5114232;28;19912;-72
2023/01/25 00:18:57;;;;;;;;;;;;;;;;;;5114074;28;19912;-72
2023/01/25 00:21:23;;;;;;;;;;;;;;;;;;5114253;28;20382;-72
2023/01/25 00:23:49;;;;;;;;;;;;;;;;;;5114213;28;20356;-72
2023/01/25 00:26:15;;;;;;;;;;;;;;;;;;5113684;28;20368;-72
2023/01/25 00:28:41;;;;;;;;;;;;;;;;;;5114143;28;20361;-72
2023/01/25 00:31:07;;;;;;;;;;;;;;;;;;5112862;28;19914;-72
2023/01/25 00:33:33;;;;;;;;;;;;;;;;;;5113691;28;19908;-72
2023/01/25 00:35:59;;;;;;;;;;;;;;;;;;5114382;28;19953;-72
2023/01/25 00:38:25;;;;;;;;;;;;;;;;;;5113675;28;19908;-72
2023/01/25 00:40:51;;;;;;;;;;;;;;;;;;5112777;28;19908;-73
2023/01/25 00:43:17;;;;;;;;;;;;;;;;;;5113823;28;19923;-72
2023/01/25 00:45:43;;;;;;;;;;;;;;;;;;5113532;28;20010;-73
2023/01/25 00:48:09;;;;;;;;;;;;;;;;;;5113957;28;19955;-73
2023/01/25 00:50:35;;;;;;;;;;;;;;;;;;5113940;28;19915;-73
2023/01/25 00:53:01;;;;;;;;;;;;;;;;;;5113482;28;20283;-73
2023/01/25 00:55:27;;;;;;;;;;;;;;;;;;5113851;28;20275;-73
2023/01/25 00:57:52;;;;;;;;;;;;;;;;;;5113860;28;19947;-73
2023/01/25 01:00:18;;;;;;;;;;;;;;;;;;5117218;28;20017;-72
2023/01/25 01:02:44;;;;;;;;;;;;;;;;;;5117674;28;19907;-72
2023/01/25 01:05:10;;;;;;;;;;;;;;;;;;5118068;28;19912;-72
2023/01/25 01:07:36;;;;;;;;;;;;;;;;;;5117235;28;20347;-72
2023/01/25 01:10:02;;;;;;;;;;;;;;;;;;5116301;28;20317;-72
2023/01/25 01:12:28;;;;;;;;;;;;;;;;;;5117473;28;20282;-72
2023/01/25 01:14:55;;;;;;;;;;;;;;;;;;5117050;28;20260;-73
2023/01/25 01:17:21;;;;;;;;;;;;;;;;;;5117367;28;20085;-72
2023/01/25 01:19:47;;;;;;;;;;;;;;;;;;5117425;28;19915;-73
2023/01/25 01:22:13;;;;;;;;;;;;;;;;;;5117075;28;20355;-73
2023/01/25 01:24:39;;;;;;;;;;;;;;;;;;5117338;28;20347;-72
2023/01/25 01:27:05;;;;;;;;;;;;;;;;;;5117215;28;20324;-72
2023/01/25 01:29:31;;;;;;;;;;;;;;;;;;5116753;28;19908;-72
2023/01/25 01:31:57;;;;;;;;;;;;;;;;;;5117228;28;20260;-72
2023/01/25 01:34:23;;;;;;;;;;;;;;;;;;5117321;28;20232;-72
2023/01/25 01:36:48;;;;;;;;;;;;;;;;;;5116580;28;19912;-73
2023/01/25 01:39:14;;;;;;;;;;;;;;;;;;5116923;28;20005;-73
2023/01/25 01:41:40;;;;;;;;;;;;;;;;;;5116946;28;19994;-73
2023/01/25 01:44:06;;;;;;;;;;;;;;;;;;5116548;28;20011;-73
2023/01/25 01:46:34;;;;;;;;;;;;;;;;;;5116865;28;19920;-73
2023/01/25 01:48:59;;;;;;;;;;;;;;;;;;5116379;28;19962;-72
2023/01/25 01:51:25;;;;;;;;;;;;;;;;;;5116762;28;19912;-73
2023/01/25 01:53:51;;;;;;;;;;;;;;;;;;5115434;28;19918;-73
2023/01/25 01:56:17;;;;;;;;;;;;;;;;;;5116225;28;20002;-73
2023/01/25 01:58:43;;;;;;;;;;;;;;;;;;5115266;28;19915;-73
2023/01/25 02:01:09;;;;;;;;;;;;;;;;;;5115327;28;19907;-73
2023/01/25 02:03:35;;;;;;;;;;;;;;;;;;5116270;28;19915;-72
2023/01/25 02:06:01;;;;;;;;;;;;;;;;;;5116304;28;20429;-72
2023/01/25 02:08:27;;;;;;;;;;;;;;;;;;5116397;28;19912;-72
2023/01/25 02:10:53;;;;;;;;;;;;;;;;;;5114147;28;19914;-73
2023/01/25 02:13:19;;;;;;;;;;;;;;;;;;5116624;28;19907;-73
2023/01/25 02:15:45;;;;;;;;;;;;;;;;;;5114953;28;19914;-73
2023/01/25 02:18:11;;;;;;;;;;;;;;;;;;5115936;28;19907;-71
2023/01/25 02:20:37;;;;;;;;;;;;;;;;;;5116138;28;19909;-73
2023/01/25 02:23:03;;;;;;;;;;;;;;;;;;5116162;28;19908;-73
2023/01/25 02:25:29;;;;;;;;;;;;;;;;;;5115704;28;19916;-73
2023/01/25 02:27:55;;;;;;;;;;;;;;;;;;5114731;28;20278;-73
2023/01/25 02:30:21;;;;;;;;;;;;;;;;;;5116508;28;19915;-71
2023/01/25 02:32:47;;;;;;;;;;;;;;;;;;5115556;28;19994;-71
2023/01/25 02:35:16;;;;;;;;;;;;;;;;;;5115848;28;20003;-71
2023/01/25 02:37:42;;;;;;;;;;;;;;;;;;5115744;28;19908;-71
2023/01/25 02:40:08;;;;;;;;;;;;;;;;;;5115292;28;19908;-71
2023/01/25 02:42:34;;;;;;;;;;;;;;;;;;5115531;28;19964;-72
2023/01/25 02:45:00;;;;;;;;;;;;;;;;;;5113962;28;19923;-74
2023/01/25 02:47:26;;;;;;;;;;;;;;;;;;5114228;28;19907;-72
2023/01/25 02:49:52;;;;;;;;;;;;;;;;;;5115569;28;19918;-72
2023/01/25 02:52:18;;;;;;;;;;;;;;;;;;5115282;28;19969;-72
2023/01/25 02:54:44;;;;;;;;;;;;;;;;;;5114155;28;19908;-72
2023/01/25 02:57:10;;;;;;;;;;;;;;;;;;5115449;28;20375;-73
2023/01/25 02:59:36;;;;;;;;;;;;;;;;;;5113678;28;19954;-73
2023/01/25 03:02:02;;;;;;;;;;;;;;;;;;5115341;28;19911;-72
2023/01/25 03:04:28;;;;;;;;;;;;;;;;;;5115364;28;19908;-72
2023/01/25 03:06:54;;;;;;;;;;;;;;;;;;5114926;28;19943;-71
2023/01/25 03:09:20;;;;;;;;;;;;;;;;;;5115241;28;19908;-72
2023/01/25 03:11:46;;;;;;;;;;;;;;;;;;5115123;28;19915;-72
2023/01/25 03:14:12;;;;;;;;;;;;;;;;;;5114830;28;19912;-71
2023/01/25 03:16:38;;;;;;;;;;;;;;;;;;5113766;28;19922;-72
2023/01/25 03:19:04;;;;;;;;;;;;;;;;;;5115060;28;19915;-72
2023/01/25 03:21:30;;;;;;;;;;;;;;;;;;5113045;28;19908;-73
2023/01/25 03:23:56;;;;;;;;;;;;;;;;;;5114616;28;19931;-72
2023/01/25 03:26:22;;;;;;;;;;;;;;;;;;5114994;28;19919;-73
2023/01/25 03:28:48;;;;;;;;;;;;;;;;;;5114585;28;19908;-73
2023/01/25 03:31:14;;;;;;;;;;;;;;;;;;5114875;28;20025;-72
2023/01/25 03:33:40;;;;;;;;;;;;;;;;;;5114832;28;19953;-72
2023/01/25 03:36:06;;;;;;;;;;;;;;;;;;5114375;28;19908;-72
2023/01/25 03:38:31;;;;;;;;;;;;;;;;;;5114707;28;19912;-72
2023/01/25 03:40:57;;;;;;;;;;;;;;;;;;5114693;28;20383;-72
2023/01/25 03:43:23;;;;;;;;;;;;;;;;;;5113980;28;19919;-72
2023/01/25 03:45:49;;;;;;;;;;;;;;;;;;5114603;27;19924;-72
2023/01/25 03:48:15;;;;;;;;;;;;;;;;;;5114807;28;19954;-72
2023/01/25 03:50:41;;;;;;;;;;;;;;;;;;5114406;28;19912;-72
2023/01/25 03:53:20;;;;;;;;;;;;;;;;;;5114650;28;19908;-72
2023/01/25 03:55:46;;;;;;;;;;;;;;;;;;5114272;28;19969;-72
2023/01/25 03:58:12;;;;;;;;;;;;;;;;;;5113183;28;20344;-72
2023/01/25 04:00:38;;;;;;;;;;;;;;;;;;5114435;28;20360;-73
2023/01/25 04:03:04;;;;;;;;;;;;;;;;;;5114417;28;19908;-72
2023/01/25 04:05:30;;;;;;;;;;;;;;;;;;5112991;28;19916;-73
2023/01/25 04:07:56;;;;;;;;;;;;;;;;;;5114352;28;19915;-72
2023/01/25 04:10:22;;;;;;;;;;;;;;;;;;5112629;28;19914;-72
2023/01/25 04:12:48;;;;;;;;;;;;;;;;;;5114241;28;19907;-72
2023/01/25 04:15:14;;;;;;;;;;;;;;;;;;5114294;28;19907;-72
2023/01/25 04:17:40;;;;;;;;;;;;;;;;;;5113862;28;19986;-72
2023/01/25 04:20:06;;;;;;;;;;;;;;;;;;5114208;28;20245;-72
2023/01/25 04:22:32;;;;;;;;;;;;;;;;;;5114206;28;19943;-73
2023/01/25 04:24:58;;;;;;;;;;;;;;;;;;5113719;28;19915;-72
2023/01/25 04:27:24;;;;;;;;;;;;;;;;;;5114138;28;19977;-72
2023/01/25 04:29:49;;;;;;;;;;;;;;;;;;5114140;28;19994;-73
2023/01/25 04:32:15;;;;;;;;;;;;;;;;;;5113724;28;19911;-73
2023/01/25 04:34:41;;;;;;;;;;;;;;;;;;5117532;28;19911;-73
2023/01/25 04:37:07;;;;;;;;;;;;;;;;;;5118401;28;19912;-72
2023/01/25 04:39:33;;;;;;;;;;;;;;;;;;5117747;28;19911;-73
2023/01/25 04:41:59;;;;;;;;;;;;;;;;;;5118077;28;19908;-73
2023/01/25 04:44:25;;;;;;;;;;;;;;;;;;5117802;28;19958;-73
2023/01/25 04:46:51;;;;;;;;;;;;;;;;;;5117582;28;19968;-73
2023/01/25 04:49:17;;;;;;;;;;;;;;;;;;5117920;28;19908;-72
2023/01/25 04:51:43;;;;;;;;;;;;;;;;;;5117517;28;19943;-73
2023/01/25 04:54:09;;;;;;;;;;;;;;;;;;5118183;28;19953;-73
2023/01/25 04:56:35;;;;;;;;;;;;;;;;;;5117790;28;19911;-73
2023/01/25 04:59:01;;;;;;;;;;;;;;;;;;5116122;28;19908;-73
2023/01/25 05:01:27;;;;;;;;;;;;;;;;;;5116552;28;19908;-73
2023/01/25 05:03:53;;;;;;;;;;;;;;;;;;5117603;28;19915;-73
2023/01/25 05:06:19;;;;;;;;;;;;;;;;;;5117132;28;19916;-73
2023/01/25 05:08:45;;;;;;;;;;;;;;;;;;5117595;28;19998;-73
2023/01/25 05:11:10;;;;;;;;;;;;;;;;;;5117511;28;19915;-72
2023/01/25 05:13:36;;;;;;;;;;;;;;;;;;5117132;28;19908;-73
2023/01/25 05:16:02;;;;;;;;;;;;;;;;;;5117652;28;19916;-72
2023/01/25 05:18:28;;;;;;;;;;;;;;;;;;5117676;28;19908;-73
2023/01/25 05:20:55;;;;;;;;;;;;;;;;;;5116970;28;19908;-72
2023/01/25 05:23:21;;;;;;;;;;;;;;;;;;5117347;28;19911;-72
2023/01/25 05:28:31;;;;;;;;;;;;;;;;;;5115230;28;20382;-73
2023/01/25 05:30:57;;;;;;;;;;;;;;;;;;5115363;28;19908;-72
2023/01/25 05:33:23;;;;;;;;;;;;;;;;;;5115790;28;20007;-73
2023/01/25 05:35:49;;;;;;;;;;;;;;;;;;5116194;28;20416;-72
2023/01/25 05:38:15;;;;;;;;;;;;;;;;;;5117119;28;20363;-73
2023/01/25 05:40:41;;;;;;;;;;;;;;;;;;5116659;28;19912;-73
2023/01/25 05:43:07;;;;;;;;;;;;;;;;;;5114297;28;19954;-73
2023/01/25 05:45:33;;;;;;;;;;;;;;;;;;5115775;28;19919;-73
2023/01/25 05:47:59;;;;;;;;;;;;;;;;;;5116347;28;19915;-73
2023/01/25 05:50:25;;;;;;;;;;;;;;;;;;5116592;28;20251;-72
2023/01/25 05:52:51;;;;;;;;;;;;;;;;;;5114604;28;19908;-72
2023/01/25 05:55:17;;;;;;;;;;;;;;;;;;5114180;28;19915;-73
2023/01/25 05:57:43;;;;;;;;;;;;;;;;;;5114632;28;20429;-73
2023/01/25 06:00:09;;;;;;;;;;;;;;;;;;5114564;28;20376;-73
2023/01/25 06:02:35;;;;;;;;;;;;;;;;;;5114218;28;19908;-73
2023/01/25 06:05:01;;;;;;;;;;;;;;;;;;5114433;28;19916;-73
2023/01/25 06:07:27;;;;;;;;;;;;;;;;;;5115907;28;19912;-81
2023/01/25 06:09:53;;;;;;;;;;;;;;;;;;5116276;28;19914;-79
2023/01/25 06:12:19;;;;;;;;;;;;;;;;;;5113932;28;19927;-75
2023/01/25 06:14:46;;;;;;;;;;;;;;;;;;5104680;28;20014;-77
2023/01/25 06:17:12;;;;;;;;;;;;;;;;;;5113951;28;19922;-75
2023/01/25 06:19:38;;;;;;;;;;;;;;;;;;5109380;28;19912;-72
2023/01/25 06:22:04;;;;;;;;;;;;;;;;;;5112732;28;19954;-74
2023/01/25 06:24:30;;;;;;;;;;;;;;;;;;5113420;27;19912;-72
2023/01/25 06:26:55;;;;;;;;;;;;;;;;;;5114767;28;20366;-74
2023/01/25 06:29:21;;;;;;;;;;;;;;;;;;5112952;28;19912;-75
2023/01/25 06:31:47;;;;;;;;;;;;;;;;;;5111698;28;19952;-74
2023/01/25 06:34:13;;;;;;;;;;;;;;;;;;5112568;28;19908;-73
2023/01/25 06:36:39;;;;;;;;;;;;;;;;;;5108299;28;19915;-74
2023/01/25 06:39:05;;;;;;;;;;;;;;;;;;5095063;28;20007;-71
2023/01/25 06:41:31;;;;;;;;;;;;;;;;;;5102722;28;19989;-74
2023/01/25 06:43:57;;;;;;;;;;;;;;;;;;5105912;28;19924;-73
2023/01/25 06:46:23;;;;;;;;;;;;;;;;;;5102846;28;19920;-71
2023/01/25 06:48:49;;;;;;;;;;;;;;;;;;5094923;28;19919;-73
2023/01/25 06:51:15;;;;;;;;;;;;;;;;;;5112574;28;19926;-73
2023/01/25 06:53:41;;;;;;;;;;;;;;;;;;5108839;28;19967;-71
2023/01/25 06:56:07;;;;;;;;;;;;;;;;;;5113729;28;20017;-71
2023/01/25 06:58:33;;;;;;;;;;;;;;;;;;5110805;28;19919;-71
2023/01/25 07:01:00;;;;;;;;;;;;;;;;;;5099284;28;19916;-70
2023/01/25 07:03:26;;;;;;;;;;;;;;;;;;5114838;28;20006;-71
2023/01/25 07:05:51;;;;;;;;;;;;;;;;;;5110904;28;20331;-72
2023/01/25 07:08:20;;;;;;;;;;;;;;;;;;5094909;28;21001;-70
2023/01/25 07:10:46;;;;;;;;;;;;;;;;;;5103540;28;20442;-73
2023/01/25 07:13:12;;;;;;;;;;;;;;;;;;5100339;28;19955;-73
2023/01/25 07:15:41;;;;;;;;;;;;;;;;;;5103538;28;19943;-72
2023/01/25 07:18:07;;;;;;;;;;;;;;;;;;5109993;28;19908;-75
2023/01/25 07:20:33;;;;;;;;;;;;;;;;;;5102786;28;19923;-68
2023/01/25 07:23:02;;;;;;;;;;;;;;;;;;5100626;28;19919;-70
2023/01/25 07:25:28;;;;;;;;;;;;;;;;;;5111762;28;20295;-72
2023/01/25 07:27:55;;;;;;;;;;;;;;;;;;5102132;28;19915;-70
2023/01/25 07:30:21;;;;;;;;;;;;;;;;;;5112071;28;20417;-68
2023/01/25 07:32:47;;;;;;;;;;;;;;;;;;5113756;28;19907;-69
2023/01/25 07:35:14;;;;;;;;;;;;;;;;;;5107990;28;19916;-69
2023/01/25 07:37:40;;;;;;;;;;;;;;;;;;5099280;28;19926;-68
2023/01/25 07:40:06;;;;;;;;;;;;;;;;;;5099947;28;19912;-68
2023/01/25 07:42:33;;;;;;;;;;;;;;;;;;5088340;28;19918;-69
2023/01/25 07:45:00;;;;;;;;;;;;;;;;;;5095137;28;19920;-66
2023/01/25 07:47:26;;;;;;;;;;;;;;;;;;5101201;28;19922;-68
2023/01/25 07:49:53;;;;;;;;;;;;;;;;;;5091189;28;20326;-69
2023/01/25 07:52:19;;;;;;;;;;;;;;;;;;5101241;28;19955;-69
2023/01/25 07:54:48;;;;;;;;;;;;;;;;;;5097670;28;19970;-68
2023/01/25 07:57:14;;;;;;;;;;;;;;;;;;5109992;28;19915;-68
2023/01/25 07:59:39;;;;;;;;;;;;;;;;;;5097127;28;19958;-69
2023/01/25 08:02:06;;;;;;;;;;;;;;;;;;5105680;28;19941;-70
2023/01/25 08:04:32;;;;;;;;;;;;;;;;;;5113152;28;19915;-75
2023/01/25 08:06:58;;;;;;;;;;;;;;;;;;5111854;28;19908;-75
2023/01/25 08:09:24;;;;;;;;;;;;;;;;;;5110279;28;19912;-74
2023/01/25 08:11:52;;;;;;;;;;;;;;;;;;5089571;28;20457;-74
2023/01/25 08:14:18;;;;;;;;;;;;;;;;;;5099965;28;19908;-74
2023/01/25 08:16:44;;;;;;;;;;;;;;;;;;5091287;28;19930;-72
2023/01/25 08:19:10;;;;;;;;;;;;;;;;;;5090531;28;20325;-75
2023/01/25 08:21:36;;;;;;;;;;;;;;;;;;5106688;28;19912;-71
2023/01/25 08:24:02;;;;;;;;;;;;;;;;;;5106223;28;19907;-67
2023/01/25 08:26:28;;;;;;;;;;;;;;;;;;5102741;28;19920;-68
2023/01/25 08:28:54;;;;;;;;;;;;;;;;;;5093580;28;19915;-69
2023/01/25 08:31:20;;;;;;;;;;;;;;;;;;5097872;28;19915;-71
2023/01/25 08:33:46;;;;;;;;;;;;;;;;;;5105066;28;19911;-69
2023/01/25 08:36:12;;;;;;;;;;;;;;;;;;5106037;28;19918;-70
2023/01/25 08:38:38;;;;;;;;;;;;;;;;;;5106482;28;19938;-74
2023/01/25 08:41:04;;;;;;;;;;;;;;;;;;5087291;28;19912;-70
2023/01/25 08:43:30;;;;;;;;;;;;;;;;;;5102508;28;19920;-69
2023/01/25 08:45:56;;;;;;;;;;;;;;;;;;5109030;28;19919;-68
2023/01/25 08:48:22;;;;;;;;;;;;;;;;;;5089641;28;19916;-70
2023/01/25 08:50:48;;;;;;;;;;;;;;;;;;5091157;28;19912;-68
2023/01/25 08:53:14;;;;;;;;;;;;;;;;;;5095161;28;19918;-72
2023/01/25 08:55:43;;;;;;;;;;;;;;;;;;5110353;28;20245;-71
2023/01/25 08:58:09;;;;;;;;;;;;;;;;;;5104278;28;19912;-71
2023/01/25 09:00:35;;;;;;;;;;;;;;;;;;5098642;28;20636;-73
2023/01/25 09:03:01;;;;;;;;;;;;;;;;;;5106912;28;19930;-73
2023/01/25 09:05:28;;;;;;;;;;;;;;;;;;5098758;28;19927;-71
2023/01/25 09:07:54;;;;;;;;;;;;;;;;;;5099095;28;19923;-70
2023/01/25 09:10:20;;;;;;;;;;;;;;;;;;5096281;28;19998;-71
2023/01/25 09:12:46;;;;;;;;;;;;;;;;;;5108725;28;20242;-71
2023/01/25 09:15:11;;;;;;;;;;;;;;;;;;5109620;28;19961;-70
2023/01/25 09:17:38;;;;;;;;;;;;;;;;;;5101047;28;20002;-71
2023/01/25 09:20:04;;;;;;;;;;;;;;;;;;5107605;28;20276;-71
2023/01/25 09:22:30;;;;;;;;;;;;;;;;;;5096460;28;19912;-72
2023/01/25 09:24:56;;;;;;;;;;;;;;;;;;5090723;28;19916;-71
2023/01/25 09:27:22;;;;;;;;;;;;;;;;;;5097958;28;20600;-73
2023/01/25 09:29:48;;;;;;;;;;;;;;;;;;5089129;28;19912;-72
2023/01/25 09:32:14;;;;;;;;;;;;;;;;;;5090831;28;20418;-72
2023/01/25 09:34:41;;;;;;;;;;;;;;;;;;5093933;28;19907;-72
2023/01/25 09:37:07;;;;;;;;;;;;;;;;;;5107467;28;19916;-70
2023/01/25 09:39:33;;;;;;;;;;;;;;;;;;5103212;28;19919;-70
2023/01/25 09:41:59;;;;;;;;;;;;;;;;;;5096541;28;19983;-72
2023/01/25 09:44:25;;;;;;;;;;;;;;;;;;5091758;28;19966;-71
2023/01/25 09:46:51;;;;;;;;;;;;;;;;;;5103644;28;19930;-72
2023/01/25 09:49:17;;;;;;;;;;;;;;;;;;5099207;28;19915;-72
2023/01/25 09:51:43;;;;;;;;;;;;;;;;;;5101723;28;19915;-69
2023/01/25 09:54:09;;;;;;;;;;;;;;;;;;5101620;28;20342;-71
2023/01/25 09:56:35;;;;;;;;;;;;;;;;;;5106826;28;20002;-71
2023/01/25 09:59:02;;;;;;;;;;;;;;;;;;5104896;28;19970;-70
2023/01/25 10:01:28;;;;;;;;;;;;;;;;;;5098985;28;19912;-71
2023/01/25 10:03:54;;;;;;;;;;;;;;;;;;5103858;28;19913;-73
2023/01/25 10:06:22;;;;;;;;;;;;;;;;;;5106656;28;19931;-72
2023/01/25 10:08:48;;;;;;;;;;;;;;;;;;5112615;28;19908;-71
2023/01/25 10:11:14;;;;;;;;;;;;;;;;;;5112997;28;19908;-71
2023/01/25 10:13:39;;;;;;;;;;;;;;;;;;5103272;28;19996;-71
2023/01/25 10:16:05;;;;;;;;;;;;;;;;;;5093749;28;19924;-69
2023/01/25 10:18:31;;;;;;;;;;;;;;;;;;5089347;28;19923;-70
2023/01/25 10:20:57;;;;;;;;;;;;;;;;;;5091315;28;19947;-69
2023/01/25 10:23:23;;;;;;;;;;;;;;;;;;5100289;28;19939;-75
2023/01/25 10:25:49;;;;;;;;;;;;;;;;;;5092082;28;19920;-71
2023/01/25 10:28:15;;;;;;;;;;;;;;;;;;5102071;28;19924;-72
2023/01/25 10:30:41;;;;;;;;;;;;;;;;;;5102778;28;19922;-69
2023/01/25 10:33:07;;;;;;;;;;;;;;;;;;5105363;28;19958;-70
2023/01/25 10:35:35;;;;;;;;;;;;;;;;;;5098488;28;19915;-68
2023/01/25 10:38:01;;;;;;;;;;;;;;;;;;5102807;28;20561;-68
2023/01/25 10:40:27;;;;;;;;;;;;;;;;;;5100401;28;19912;-70
2023/01/25 10:42:53;;;;;;;;;;;;;;;;;;5103866;28;19958;-70
2023/01/25 10:45:19;;;;;;;;;;;;;;;;;;5104636;28;19963;-70
2023/01/25 10:47:45;;;;;;;;;;;;;;;;;;5107338;28;19913;-71
2023/01/25 10:50:11;;;;;;;;;;;;;;;;;;5099178;28;19926;-72
2023/01/25 10:52:37;;;;;;;;;;;;;;;;;;5106523;28;19912;-69
2023/01/25 10:55:03;;;;;;;;;;;;;;;;;;5103801;28;20027;-69
2023/01/25 10:57:29;;;;;;;;;;;;;;;;;;5107145;28;20414;-68
2023/01/25 10:59:55;;;;;;;;;;;;;;;;;;5110712;28;20399;-70
2023/01/25 11:02:21;;;;;;;;;;;;;;;;;;5090645;28;20319;-72
2023/01/25 11:04:47;;;;;;;;;;;;;;;;;;5090941;28;20357;-70
2023/01/25 11:07:13;;;;;;;;;;;;;;;;;;5091264;28;19915;-70
2023/01/25 11:09:39;;;;;;;;;;;;;;;;;;5101389;28;20523;-71
2023/01/25 11:12:06;;;;;;;;;;;;;;;;;;5104460;28;19984;-70
2023/01/25 11:14:32;;;;;;;;;;;;;;;;;;5110282;28;19963;-70
2023/01/25 11:16:58;;;;;;;;;;;;;;;;;;5111301;28;19949;-69
2023/01/25 11:19:24;;;;;;;;;;;;;;;;;;5101733;28;19966;-69
2023/01/25 11:21:50;;;;;;;;;;;;;;;;;;5100371;28;19912;-70
2023/01/25 11:24:16;;;;;;;;;;;;;;;;;;5095269;28;19964;-71
2023/01/25 11:26:42;;;;;;;;;;;;;;;;;;5101097;28;19923;-71
2023/01/25 11:29:08;;;;;;;;;;;;;;;;;;5105984;28;20275;-71
2023/01/25 11:31:34;;;;;;;;;;;;;;;;;;5097477;28;19912;-70
2023/01/25 11:34:00;;;;;;;;;;;;;;;;;;5091608;28;20360;-71
2023/01/25 11:36:26;;;;;;;;;;;;;;;;;;5093624;28;19919;-74
2023/01/25 11:38:52;;;;;;;;;;;;;;;;;;5094428;28;19912;-76
2023/01/25 11:41:18;;;;;;;;;;;;;;;;;;5092231;28;20003;-74
2023/01/25 11:43:44;;;;;;;;;;;;;;;;;;5090767;28;19927;-73
2023/01/25 11:46:10;;;;;;;;;;;;;;;;;;5092187;28;20332;-74
2023/01/25 11:48:38;;;;;;;;;;;;;;;;;;5094512;28;19915;-73
2023/01/25 11:51:04;;;;;;;;;;;;;;;;;;5094837;28;19912;-72
2023/01/25 11:53:30;;;;;;;;;;;;;;;;;;5091033;28;19920;-71
2023/01/25 11:55:56;;;;;;;;;;;;;;;;;;5096641;28;20440;-72
2023/01/25 11:58:21;;;;;;;;;;;;;;;;;;5102443;28;20459;-72
2023/01/25 12:00:47;;;;;;;;;;;;;;;;;;5097626;28;19968;-73
2023/01/25 12:03:13;;;;;;;;;;;;;;;;;;5097853;28;19937;-72
2023/01/25 12:05:39;;;;;;;;;;;;;;;;;;5101742;28;19932;-70
2023/01/25 12:08:06;;;;;;;;;;;;;;;;;;5101865;28;19916;-70
2023/01/25 12:10:32;;;;;;;;;;;;;;;;;;5110623;28;19999;-71
2023/01/25 12:12:57;;;;;;;;;;;;;;;;;;5109009;28;20022;-70
2023/01/25 12:15:23;;;;;;;;;;;;;;;;;;5109002;28;19923;-70
2023/01/25 12:17:49;;;;;;;;;;;;;;;;;;5096560;28;19939;-71
2023/01/25 12:20:15;;;;;;;;;;;;;;;;;;5103565;28;19955;-71
2023/01/25 12:22:41;;;;;;;;;;;;;;;;;;5093714;28;19920;-71
2023/01/25 12:25:07;;;;;;;;;;;;;;;;;;5090376;28;20368;-71
2023/01/25 12:27:33;;;;;;;;;;;;;;;;;;5105738;28;19918;-74
2023/01/25 12:29:59;;;;;;;;;;;;;;;;;;5108884;28;19957;-71
2023/01/25 12:32:25;;;;;;;;;;;;;;;;;;5105729;28;19994;-70
2023/01/25 12:34:51;;;;;;;;;;;;;;;;;;5111522;28;19999;-68
2023/01/25 12:37:17;;;;;;;;;;;;;;;;;;5104770;28;19911;-71
2023/01/25 12:39:43;;;;;;;;;;;;;;;;;;5110051;28;19915;-73
2023/01/25 12:42:09;;;;;;;;;;;;;;;;;;5111516;28;20002;-70
2023/01/25 12:44:35;;;;;;;;;;;;;;;;;;5108570;28;19916;-74
2023/01/25 12:47:01;;;;;;;;;;;;;;;;;;5100031;28;19923;-69
2023/01/25 12:49:27;;;;;;;;;;;;;;;;;;5111306;28;19947;-70
2023/01/25 12:51:53;;;;;;;;;;;;;;;;;;5108368;28;19931;-71
2023/01/25 12:54:19;;;;;;;;;;;;;;;;;;5109680;28;19922;-73
2023/01/25 12:56:45;;;;;;;;;;;;;;;;;;5099377;28;20010;-71
2023/01/25 12:59:11;;;;;;;;;;;;;;;;;;5100374;28;19957;-72
2023/01/25 13:01:37;;;;;;;;;;;;;;;;;;5112231;28;19916;-73
2023/01/25 13:04:03;;;;;;;;;;;;;;;;;;5106001;28;19916;-71
2023/01/25 13:06:29;;;;;;;;;;;;;;;;;;5100815;28;19916;-70
2023/01/25 13:08:57;;;;;;;;;;;;;;;;;;5099010;28;20252;-73
2023/01/25 13:11:23;;;;;;;;;;;;;;;;;;5108759;28;20316;-72
2023/01/25 13:13:49;;;;;;;;;;;;;;;;;;5105991;28;20353;-73
2023/01/25 13:16:15;;;;;;;;;;;;;;;;;;5100189;28;19961;-73
2023/01/25 13:18:41;;;;;;;;;;;;;;;;;;5101861;28;20295;-71
2023/01/25 13:21:10;;;;;;;;;;;;;;;;;;5107781;28;20317;-74
2023/01/25 13:23:45;;;;;;;;;;;;;;;;;;5113723;28;19908;-74
2023/01/25 13:26:12;;;;;;;;;;;;;;;;;;5114880;28;20260;-74
2023/01/25 13:28:37;;;;;;;;;;;;;;;;;;5108828;28;19916;-75
2023/01/25 13:31:04;;;;;;;;;;;;;;;;;;5101199;28;19912;-74
2023/01/25 13:33:30;;;;;;;;;;;;;;;;;;5103609;28;19960;-72
2023/01/25 13:35:55;;;;;;;;;;;;;;;;;;5116290;28;19949;-74
2023/01/25 13:38:23;;;;;;;;;;;;;;;;;;5116265;28;19912;-73
2023/01/25 13:40:49;;;;;;;;;;;;;;;;;;5114487;28;19908;-70
2023/01/25 13:43:15;;;;;;;;;;;;;;;;;;5109410;28;19927;-71
2023/01/25 13:45:41;;;;;;;;;;;;;;;;;;5094763;28;19963;-72
2023/01/25 13:48:07;;;;;;;;;;;;;;;;;;5110040;28;19907;-73
2023/01/25 13:50:33;;;;;;;;;;;;;;;;;;5105468;28;19908;-73
2023/01/25 13:52:59;;;;;;;;;;;;;;;;;;5095218;28;19912;-73
2023/01/25 13:55:25;;;;;;;;;;;;;;;;;;5094223;28;19954;-73
2023/01/25 13:57:51;;;;;;;;;;;;;;;;;;5102504;28;20383;-74
2023/01/25 14:00:17;;;;;;;;;;;;;;;;;;5099690;28;20417;-72
2023/01/25 14:02:43;;;;;;;;;;;;;;;;;;5101917;28;19912;-70
2023/01/25 14:05:09;;;;;;;;;;;;;;;;;;5097636;28;19924;-76
2023/01/25 14:07:35;;;;;;;;;;;;;;;;;;5101653;28;20237;-75
2023/01/25 14:10:01;;;;;;;;;;;;;;;;;;5114267;28;20382;-74
2023/01/25 14:12:27;;;;;;;;;;;;;;;;;;5114261;28;19953;-74
2023/01/25 14:14:53;;;;;;;;;;;;;;;;;;5111758;28;19968;-74
2023/01/25 14:17:19;;;;;;;;;;;;;;;;;;5112631;28;19908;-74
2023/01/25 14:19:48;;;;;;;;;;;;;;;;;;5114046;28;20218;-74
2023/01/25 14:22:14;;;;;;;;;;;;;;;;;;5113746;28;20276;-75
2023/01/25 14:24:40;;;;;;;;;;;;;;;;;;5112726;28;19908;-75
2023/01/25 14:27:06;;;;;;;;;;;;;;;;;;5113925;28;19915;-74
2023/01/25 14:29:32;;;;;;;;;;;;;;;;;;5113491;28;19912;-75
2023/01/25 14:31:58;;;;;;;;;;;;;;;;;;5113887;28;19914;-75
2023/01/25 14:34:24;;;;;;;;;;;;;;;;;;5113955;28;20287;-75
2023/01/25 14:36:50;;;;;;;;;;;;;;;;;;5114314;28;20253;-75
2023/01/25 14:39:16;;;;;;;;;;;;;;;;;;5115348;28;19908;-75
2023/01/25 14:41:42;;;;;;;;;;;;;;;;;;5117487;28;19917;-74
2023/01/25 14:44:09;;;;;;;;;;;;;;;;;;5115898;28;19969;-74
2023/01/25 14:46:35;;;;;;;;;;;;;;;;;;5118362;28;19945;-76
2023/01/25 14:49:01;;;;;;;;;;;;;;;;;;5115874;28;20369;-74
2023/01/25 14:51:27;;;;;;;;;;;;;;;;;;5115128;28;20268;-74
2023/01/25 14:53:53;;;;;;;;;;;;;;;;;;5115517;28;19908;-75
2023/01/25 14:56:19;;;;;;;;;;;;;;;;;;5115981;28;20366;-75
2023/01/25 14:58:45;;;;;;;;;;;;;;;;;;5114951;28;20430;-75
2023/01/25 15:01:11;;;;;;;;;;;;;;;;;;5115541;28;19915;-75
2023/01/25 15:03:36;;;;;;;;;;;;;;;;;;5114899;28;20364;-74
2023/01/25 15:06:02;;;;;;;;;;;;;;;;;;5113954;28;20358;-75
2023/01/25 15:08:28;;;;;;;;;;;;;;;;;;5115750;28;20332;-75
2023/01/25 15:10:54;;;;;;;;;;;;;;;;;;5114872;28;20359;-75
2023/01/25 15:13:20;;;;;;;;;;;;;;;;;;5115209;28;19943;-74
2023/01/25 15:15:46;;;;;;;;;;;;;;;;;;5113836;28;19907;-76
2023/01/25 15:18:12;;;;;;;;;;;;;;;;;;5114659;28;20322;-75
2023/01/25 15:20:38;;;;;;;;;;;;;;;;;;5115930;28;19908;-76
2023/01/25 15:23:04;;;;;;;;;;;;;;;;;;5115212;28;20382;-75
2023/01/25 15:25:30;;;;;;;;;;;;;;;;;;5114587;28;20002;-75
2023/01/25 15:27:56;;;;;;;;;;;;;;;;;;5115008;28;20425;-75
2023/01/25 15:30:22;;;;;;;;;;;;;;;;;;5113613;28;19912;-75
2023/01/25 15:32:48;;;;;;;;;;;;;;;;;;5113376;28;20292;-75
2023/01/25 15:35:14;;;;;;;;;;;;;;;;;;5114903;28;19947;-75
2023/01/25 15:37:40;;;;;;;;;;;;;;;;;;5114941;28;20379;-75
2023/01/25 15:40:06;;;;;;;;;;;;;;;;;;5114409;28;19934;-75
2023/01/25 15:42:32;;;;;;;;;;;;;;;;;;5114587;28;19939;-76
2023/01/25 15:44:58;;;;;;;;;;;;;;;;;;5113353;28;19978;-75
2023/01/25 15:47:26;;;;;;;;;;;;;;;;;;5113547;28;20215;-75
2023/01/25 15:49:52;;;;;;;;;;;;;;;;;;5114799;28;19912;-77
2023/01/25 15:52:19;;;;;;;;;;;;;;;;;;5114726;28;19904;-75
2023/01/25 15:54:45;;;;;;;;;;;;;;;;;;5114235;28;19908;-75
2023/01/25 15:57:11;;;;;;;;;;;;;;;;;;5113305;28;19904;-75
2023/01/25 15:59:37;;;;;;;;;;;;;;;;;;5114526;28;20364;-77
2023/01/25 16:02:03;;;;;;;;;;;;;;;;;;5112923;28;20316;-75
2023/01/25 16:04:29;;;;;;;;;;;;;;;;;;5114892;28;20324;-76
2023/01/25 16:06:55;;;;;;;;;;;;;;;;;;5114211;28;19919;-76
2023/01/25 16:09:21;;;;;;;;;;;;;;;;;;5114523;28;19915;-75
2023/01/25 16:11:47;;;;;;;;;;;;;;;;;;5112981;28;20385;-76
2023/01/25 16:14:13;;;;;;;;;;;;;;;;;;5113991;28;20359;-75
2023/01/25 16:16:39;;;;;;;;;;;;;;;;;;5114200;28;19915;-76
2023/01/25 16:19:05;;;;;;;;;;;;;;;;;;5114142;28;19908;-76
2023/01/25 16:21:31;;;;;;;;;;;;;;;;;;5113762;28;19915;-75
2023/01/25 16:23:56;;;;;;;;;;;;;;;;;;5113056;28;20283;-75
2023/01/25 16:26:22;;;;;;;;;;;;;;;;;;5114068;28;20010;-76
2023/01/25 16:28:48;;;;;;;;;;;;;;;;;;5113439;28;19931;-75
2023/01/25 16:31:14;;;;;;;;;;;;;;;;;;5118148;28;19911;-75
2023/01/25 16:33:42;;;;;;;;;;;;;;;;;;5118594;28;19999;-76
2023/01/25 16:36:08;;;;;;;;;;;;;;;;;;5116563;28;19957;-74
2023/01/25 16:38:34;;;;;;;;;;;;;;;;;;5118145;28;20299;-75
2023/01/25 16:41:00;;;;;;;;;;;;;;;;;;5118329;28;19907;-75